createdAt,value
2023-04-27T00:02:26.089Z,13.90
2023-04-27T00:04:59.451Z,18.50
2023-04-27T00:07:32.967Z,14.80
2023-04-27T00:10:07.029Z,14.20
2023-04-27T00:12:42.142Z,17.40
2023-04-27T00:15:16.237Z,16.60
2023-04-27T00:17:49.310Z,21.30
2023-04-27T00:20:22.644Z,17.30
2023-04-27T00:22:55.676Z,13.90
2023-04-27T00:25:29.096Z,15.80
2023-04-27T00:28:02.061Z,15.00
2023-04-27T00:30:36.132Z,19.50
2023-04-27T00:33:09.222Z,17.90
2023-04-27T00:35:42.225Z,13.10
2023-04-27T00:38:15.291Z,17.60
2023-04-27T00:40:48.244Z,11.60
2023-04-27T00:43:21.222Z,11.20
2023-04-27T00:45:54.449Z,22.30
2023-04-27T00:48:27.759Z,16.10
2023-04-27T00:51:00.890Z,17.30
2023-04-27T00:53:35.388Z,15.70
2023-04-27T00:56:09.753Z,16.00
2023-04-27T00:58:42.766Z,14.60
2023-04-27T01:01:16.895Z,17.00
2023-04-27T01:03:50.405Z,13.50
2023-04-27T01:06:23.623Z,12.50
2023-04-27T01:08:56.913Z,18.10
2023-04-27T01:11:29.943Z,17.30
2023-04-27T01:14:06.803Z,13.00
2023-04-27T01:16:40.848Z,14.80
2023-04-27T01:19:15.906Z,11.30
2023-04-27T01:21:49.408Z,16.10
2023-04-27T01:24:23.646Z,10.60
2023-04-27T01:26:56.728Z,14.30
2023-04-27T01:29:29.921Z,12.00
2023-04-27T01:32:03.066Z,15.50
2023-04-27T01:34:36.201Z,12.20
2023-04-27T01:37:09.751Z,15.30
2023-04-27T01:39:43.289Z,15.10
2023-04-27T01:42:17.345Z,14.60
2023-04-27T01:44:51.376Z,17.40
2023-04-27T01:47:24.391Z,16.50
2023-04-27T01:49:57.356Z,15.80
2023-04-27T01:52:30.339Z,13.70
2023-04-27T01:55:03.638Z,16.70
2023-04-27T01:57:36.832Z,14.60
2023-04-27T02:00:12.469Z,9.70
2023-04-27T02:02:57.599Z,17.50
2023-04-27T02:05:30.817Z,15.30
2023-04-27T02:08:03.833Z,15.10
2023-04-27T02:10:38.137Z,19.50
2023-04-27T02:13:11.326Z,15.70
2023-04-27T02:15:44.412Z,14.70
2023-04-27T02:18:17.601Z,17.90
2023-04-27T02:20:50.706Z,15.60
2023-04-27T02:23:23.827Z,14.40
2023-04-27T02:25:57.004Z,14.10
2023-04-27T02:28:30.032Z,14.50
2023-04-27T02:31:03.981Z,16.80
2023-04-27T02:33:36.884Z,12.80
2023-04-27T02:36:11.410Z,19.90
2023-04-27T02:38:44.314Z,16.30
2023-04-27T02:41:17.316Z,13.00
2023-04-27T02:43:51.599Z,13.90
2023-04-27T02:46:24.760Z,17.50
2023-04-27T02:49:00.217Z,15.00
2023-04-27T02:51:33.489Z,13.20
2023-04-27T02:54:06.934Z,14.00
2023-04-27T02:56:40.038Z,15.80
2023-04-27T02:59:13.287Z,18.50
2023-04-27T03:01:46.823Z,18.80
2023-04-27T03:04:20.388Z,14.10
2023-04-27T03:06:54.740Z,15.50
2023-04-27T03:09:27.718Z,17.50
2023-04-27T03:12:00.878Z,21.50
2023-04-27T03:14:33.932Z,16.50
2023-04-27T03:17:06.865Z,17.50
2023-04-27T03:19:40.160Z,15.40
2023-04-27T03:22:13.296Z,17.90
2023-04-27T03:24:48.356Z,13.80
2023-04-27T03:27:22.389Z,15.30
2023-04-27T03:29:57.403Z,15.10
2023-04-27T03:32:30.451Z,14.40
2023-04-27T03:35:04.091Z,18.50
2023-04-27T03:37:37.087Z,14.10
2023-04-27T03:40:14.477Z,15.60
2023-04-27T03:42:47.581Z,17.40
2023-04-27T03:45:22.538Z,13.50
2023-04-27T03:47:56.313Z,13.50
2023-04-27T03:50:30.287Z,16.80
2023-04-27T03:53:03.684Z,14.60
2023-04-27T03:55:38.997Z,15.90
2023-04-27T03:58:12.753Z,11.50
2023-04-27T04:00:57.436Z,19.60
2023-04-27T04:03:30.676Z,21.60
2023-04-27T04:06:04.047Z,14.80
2023-04-27T04:08:37.543Z,14.20
2023-04-27T04:11:10.815Z,13.30
2023-04-27T04:13:44.368Z,13.70
2023-04-27T04:16:17.923Z,17.20
2023-04-27T04:18:51.519Z,14.50
2023-04-27T04:21:24.652Z,11.90
2023-04-27T04:23:57.760Z,9.00
2023-04-27T04:26:31.039Z,19.40
2023-04-27T04:29:04.149Z,16.50
2023-04-27T04:31:38.341Z,17.50
2023-04-27T04:34:11.467Z,13.70
2023-04-27T04:36:44.529Z,13.30
2023-04-27T04:39:17.590Z,20.70
2023-04-27T04:41:50.892Z,16.00
2023-04-27T04:44:24.152Z,24.40
2023-04-27T04:46:57.607Z,16.10
2023-04-27T04:49:32.463Z,12.60
2023-04-27T04:52:06.125Z,14.80
2023-04-27T04:54:39.495Z,19.30
2023-04-27T04:57:12.656Z,15.30
2023-04-27T04:59:45.880Z,14.90
2023-04-27T05:02:19.034Z,14.80
2023-04-27T05:04:52.750Z,17.30
2023-04-27T05:07:25.879Z,17.30
2023-04-27T05:09:59.058Z,14.70
2023-04-27T05:12:32.305Z,12.20
2023-04-27T05:15:05.494Z,16.10
2023-04-27T05:17:38.626Z,15.00
2023-04-27T05:20:13.406Z,15.00
2023-04-27T05:22:46.519Z,15.70
2023-04-27T05:25:19.753Z,15.70
2023-04-27T05:27:52.924Z,17.40
2023-04-27T05:30:26.413Z,12.40
2023-04-27T05:32:59.558Z,11.70
2023-04-27T05:35:32.858Z,12.60
2023-04-27T05:38:05.990Z,17.90
2023-04-27T05:40:38.900Z,16.30
2023-04-27T05:43:11.871Z,16.30
2023-04-27T05:45:45.465Z,15.80
2023-04-27T05:48:18.519Z,11.30
2023-04-27T05:50:51.555Z,8.10
2023-04-27T05:53:24.645Z,13.70
2023-04-27T05:55:59.443Z,14.90
2023-04-27T05:58:32.695Z,8.70
2023-04-27T06:01:06.351Z,11.80
2023-04-27T06:03:39.598Z,12.80
2023-04-27T06:06:12.883Z,18.10
2023-04-27T06:08:45.925Z,13.70
2023-04-27T06:11:18.885Z,14.60
2023-04-27T06:13:51.852Z,13.30
2023-04-27T06:16:25.031Z,14.90
2023-04-27T06:18:58.278Z,14.20
2023-04-27T06:21:33.838Z,17.60
2023-04-27T06:24:07.408Z,9.70
2023-04-27T06:26:40.350Z,13.80
2023-04-27T06:29:13.631Z,10.70
2023-04-27T06:31:47.495Z,9.80
2023-04-27T06:34:20.492Z,12.60
2023-04-27T06:36:53.567Z,11.40
2023-04-27T06:39:26.875Z,11.90
2023-04-27T06:42:00.000Z,9.70
2023-04-27T06:44:33.156Z,12.10
2023-04-27T06:47:06.694Z,11.10
2023-04-27T06:49:39.665Z,12.50
2023-04-27T06:52:12.855Z,9.10
2023-04-27T06:54:45.966Z,14.60
2023-04-27T06:57:18.898Z,11.60
2023-04-27T06:59:52.389Z,11.30
2023-04-27T07:02:25.681Z,9.90
2023-04-27T07:04:58.948Z,9.50
2023-04-27T07:07:32.158Z,14.50
2023-04-27T07:10:05.589Z,7.30
2023-04-27T07:12:38.691Z,11.40
2023-04-27T07:15:13.604Z,14.30
2023-04-27T07:17:46.806Z,13.70
2023-04-27T07:20:20.022Z,7.30
2023-04-27T07:22:53.379Z,15.60
2023-04-27T07:25:26.747Z,9.10
2023-04-27T07:27:59.932Z,8.80
2023-04-27T07:30:36.483Z,8.90
2023-04-27T07:33:10.158Z,10.40
2023-04-27T07:35:43.452Z,6.60
2023-04-27T07:38:17.644Z,6.90
2023-04-27T07:40:51.418Z,11.60
2023-04-27T07:43:25.931Z,8.00
2023-04-27T07:45:59.367Z,8.20
2023-04-27T07:48:32.930Z,9.20
2023-04-27T07:51:06.134Z,9.80
2023-04-27T07:53:41.302Z,5.40
2023-04-27T07:56:14.421Z,3.80
2023-04-27T07:58:47.767Z,6.10
2023-04-27T08:01:21.597Z,4.50
2023-04-27T08:03:55.258Z,8.50
2023-04-27T08:06:29.869Z,6.20
2023-04-27T08:09:04.751Z,6.90
2023-04-27T08:11:38.106Z,10.00
2023-04-27T08:14:13.894Z,7.60
2023-04-27T08:16:47.531Z,5.60
2023-04-27T08:19:21.292Z,7.10
2023-04-27T08:21:54.368Z,7.40
2023-04-27T08:24:27.474Z,6.90
2023-04-27T08:27:00.423Z,9.00
2023-04-27T08:29:34.020Z,3.40
2023-04-27T08:32:09.695Z,4.20
2023-04-27T08:34:42.994Z,6.40
2023-04-27T08:37:16.043Z,3.90
2023-04-27T08:39:49.815Z,6.20
2023-04-27T08:42:22.876Z,5.40
2023-04-27T08:44:55.982Z,6.50
2023-04-27T08:47:41.665Z,7.90
2023-04-27T08:50:17.145Z,6.70
2023-04-27T08:52:51.054Z,8.50
2023-04-27T08:55:24.545Z,5.30
2023-04-27T08:58:01.865Z,5.60
2023-04-27T09:00:43.902Z,7.80
2023-04-27T09:03:27.739Z,9.90
2023-04-27T09:06:05.036Z,5.00
2023-04-27T09:08:55.018Z,7.70
2023-04-27T09:11:36.348Z,8.40
2023-04-27T09:14:22.100Z,5.00
2023-04-27T09:17:00.695Z,13.50
2023-04-27T09:19:34.386Z,4.30
2023-04-27T09:22:15.700Z,6.50
2023-04-27T09:24:56.241Z,4.90
2023-04-27T09:27:29.399Z,6.90
2023-04-27T09:30:02.490Z,6.20
2023-04-27T09:32:35.614Z,4.20
2023-04-27T09:35:22.722Z,9.10
2023-04-27T09:37:57.252Z,8.90
2023-04-27T09:40:32.077Z,3.80
2023-04-27T09:43:05.294Z,6.80
2023-04-27T09:45:39.999Z,11.70
2023-04-27T09:48:14.803Z,5.60
2023-04-27T09:50:50.032Z,9.00
2023-04-27T09:53:31.652Z,5.20
2023-04-27T09:56:26.286Z,7.60
2023-04-27T09:59:19.360Z,4.30
2023-04-27T10:01:56.432Z,6.90
2023-04-27T10:05:10.792Z,5.40
2023-04-27T10:07:46.648Z,7.10
2023-04-27T10:10:22.552Z,8.20
2023-04-27T10:13:04.618Z,5.40
2023-04-27T10:15:42.951Z,6.00
2023-04-27T10:18:26.484Z,6.20
2023-04-27T10:21:10.955Z,6.50
2023-04-27T10:23:53.266Z,4.10
2023-04-27T10:26:32.084Z,6.40
2023-04-27T10:29:12.222Z,7.40
2023-04-27T10:31:50.653Z,6.00
2023-04-27T10:34:24.337Z,5.80
2023-04-27T10:37:10.530Z,4.30
2023-04-27T10:39:49.377Z,6.80
2023-04-27T10:42:32.442Z,4.90
2023-04-27T10:45:05.847Z,5.10
2023-04-27T10:49:56.195Z,7.70
2023-04-27T10:52:28.260Z,4.50
2023-04-27T10:54:58.626Z,8.10
2023-04-27T10:57:29.323Z,4.40
2023-04-27T11:02:29.796Z,5.00
2023-04-27T11:04:59.973Z,6.90
2023-04-27T11:07:29.980Z,8.20
2023-04-27T11:09:59.649Z,8.20
2023-04-27T11:12:32.102Z,5.30
2023-04-27T11:15:02.025Z,3.90
2023-04-27T11:17:33.413Z,5.00
2023-04-27T11:20:04.888Z,5.80
2023-04-27T11:22:34.733Z,3.70
2023-04-27T11:25:05.108Z,5.70
2023-04-27T11:30:21.741Z,8.30
2023-04-27T11:32:53.143Z,7.20
2023-04-27T11:35:33.633Z,7.10
2023-04-27T11:38:03.704Z,6.80
2023-04-27T11:40:35.464Z,4.70
2023-04-27T11:43:05.064Z,6.10
2023-04-27T11:45:34.864Z,8.30
2023-04-27T11:48:05.058Z,5.30
2023-04-27T11:50:34.916Z,6.10
2023-04-27T11:53:04.649Z,4.80
2023-04-27T11:55:38.078Z,4.50
2023-04-27T11:58:14.219Z,5.20
2023-04-27T12:00:44.311Z,7.30
2023-04-27T12:03:14.517Z,3.80
2023-04-27T12:05:51.197Z,7.90
2023-04-27T12:08:21.595Z,5.90
2023-04-27T12:13:20.752Z,8.40
2023-04-27T12:15:51.043Z,6.00
2023-04-27T12:18:20.763Z,7.60
2023-04-27T12:20:50.846Z,7.60
2023-04-27T12:23:20.552Z,6.80
2023-04-27T12:25:50.324Z,6.60
2023-04-27T12:28:20.087Z,5.60
2023-04-27T12:30:49.838Z,5.20
2023-04-27T12:33:19.806Z,4.80
2023-04-27T12:35:49.635Z,5.10
2023-04-27T12:38:19.402Z,5.50
2023-04-27T12:40:49.787Z,6.10
2023-04-27T12:43:19.527Z,5.50
2023-04-27T12:45:49.136Z,5.80
2023-04-27T12:48:19.316Z,5.70
2023-04-27T12:50:49.228Z,4.50
2023-04-27T12:53:18.989Z,5.20
2023-04-27T12:55:49.067Z,4.00
2023-04-27T12:58:18.953Z,4.50
2023-04-27T13:00:48.970Z,4.70
2023-04-27T13:03:18.937Z,3.30
2023-04-27T13:05:49.502Z,10.00
2023-04-27T13:08:19.131Z,5.20
2023-04-27T13:10:49.082Z,3.90
2023-04-27T13:15:47.584Z,5.70
2023-04-27T13:18:17.444Z,5.10
2023-04-27T13:20:48.624Z,4.60
2023-04-27T13:23:18.663Z,4.00
2023-04-27T13:25:49.296Z,12.20
2023-04-27T13:28:19.252Z,5.30
2023-04-27T13:30:48.984Z,5.20
2023-04-27T13:35:53.769Z,6.00
2023-04-27T13:40:53.470Z,6.00
2023-04-27T13:43:23.268Z,6.20
2023-04-27T13:45:54.721Z,5.20
2023-04-27T13:48:24.868Z,9.20
2023-04-27T13:50:55.777Z,7.60
2023-04-27T13:53:26.330Z,5.20
2023-04-27T13:55:57.389Z,5.80
2023-04-27T13:58:28.654Z,6.50
2023-04-27T14:00:59.185Z,8.60
2023-04-27T14:03:29.345Z,4.20
2023-04-27T14:06:04.687Z,6.70
2023-04-27T14:08:39.730Z,7.60
2023-04-27T14:11:11.480Z,6.30
2023-04-27T14:13:41.372Z,5.50
2023-04-27T14:16:11.208Z,8.20
2023-04-27T14:18:41.139Z,11.10
2023-04-27T14:21:10.971Z,5.70
2023-04-27T14:23:40.600Z,6.90
2023-04-27T14:26:10.333Z,7.30
2023-04-27T14:28:40.557Z,6.60
2023-04-27T14:31:10.604Z,5.10
2023-04-27T14:33:40.555Z,9.00
2023-04-27T14:36:11.183Z,3.40
2023-04-27T14:38:40.951Z,4.60
2023-04-27T14:41:10.589Z,5.20
2023-04-27T14:46:20.405Z,5.80
2023-04-27T14:48:51.227Z,5.20
2023-04-27T14:51:21.096Z,5.40
2023-04-27T14:53:50.837Z,4.30
2023-04-27T14:56:22.625Z,5.00
2023-04-27T14:58:52.377Z,5.20
2023-04-27T15:01:22.224Z,5.70
2023-04-27T15:03:53.735Z,5.70
2023-04-27T15:06:24.014Z,9.50
2023-04-27T15:08:53.644Z,5.60
2023-04-27T15:13:51.957Z,5.70
2023-04-27T15:16:21.643Z,3.60
2023-04-27T15:18:51.667Z,6.00
2023-04-27T15:21:22.956Z,7.60
2023-04-27T15:23:52.664Z,6.90
2023-04-27T15:28:51.389Z,8.20
2023-04-27T15:31:21.655Z,6.30
2023-04-27T15:33:53.250Z,6.10
2023-04-27T15:36:26.081Z,5.30
2023-04-27T15:38:55.928Z,4.40
2023-04-27T15:41:26.365Z,3.70
2023-04-27T15:43:56.048Z,6.10
2023-04-27T15:46:25.767Z,4.60
2023-04-27T15:48:55.549Z,4.40
2023-04-27T15:51:26.235Z,6.50
2023-04-27T15:53:56.437Z,5.50
2023-04-27T15:56:29.914Z,6.90
2023-04-27T15:59:00.663Z,5.30
2023-04-27T16:01:30.716Z,4.40
2023-04-27T16:04:00.572Z,5.80
2023-04-27T16:06:35.191Z,7.80
2023-04-27T16:09:07.583Z,6.50
2023-04-27T16:11:38.966Z,10.20
2023-04-27T16:14:08.853Z,8.00
2023-04-27T16:16:38.808Z,4.20
2023-04-27T16:19:09.552Z,7.80
2023-04-27T16:21:39.186Z,4.60
2023-04-27T16:24:09.130Z,6.60
2023-04-27T16:26:38.921Z,10.00
2023-04-27T16:29:08.650Z,6.70
2023-04-27T16:31:38.806Z,6.00
2023-04-27T16:34:08.692Z,3.80
2023-04-27T16:36:38.370Z,4.80
2023-04-27T16:39:09.018Z,4.30
2023-04-27T16:41:38.853Z,5.90
2023-04-27T16:44:08.743Z,6.70
2023-04-27T16:46:38.833Z,7.00
2023-04-27T16:49:10.853Z,7.50
2023-04-27T16:51:40.774Z,10.60
2023-04-27T16:54:10.542Z,10.80
2023-04-27T16:56:40.530Z,7.60
2023-04-27T16:59:11.947Z,4.80
2023-04-27T17:01:42.399Z,6.70
2023-04-27T17:04:12.350Z,5.80
2023-04-27T17:06:44.308Z,6.50
2023-04-27T17:09:14.531Z,7.90
2023-04-27T17:11:44.477Z,5.20
2023-04-27T17:14:14.274Z,6.80
2023-04-27T17:16:44.005Z,4.40
2023-04-27T17:19:14.328Z,6.90
2023-04-27T17:21:44.156Z,4.50
2023-04-27T17:24:14.058Z,8.00
2023-04-27T17:26:43.700Z,8.90
2023-04-27T17:29:15.684Z,10.90
2023-04-27T17:31:46.781Z,4.90
2023-04-27T17:34:16.595Z,12.00
2023-04-27T17:36:46.770Z,5.70
2023-04-27T17:39:17.143Z,5.90
2023-04-27T17:44:16.108Z,7.30
2023-04-27T17:46:49.245Z,4.80
2023-04-27T17:49:19.905Z,7.80
2023-04-27T17:51:50.137Z,9.10
2023-04-27T17:54:19.721Z,11.60
2023-04-27T17:56:49.449Z,10.30
2023-04-27T17:59:19.361Z,13.30
2023-04-27T18:01:49.390Z,11.10
2023-04-27T18:04:19.465Z,18.50
2023-04-27T18:06:49.677Z,11.70
2023-04-27T18:09:19.303Z,9.90
2023-04-27T18:11:49.110Z,11.40
2023-04-27T18:14:18.787Z,19.20
2023-04-27T18:16:48.660Z,14.50
2023-04-27T18:19:18.617Z,13.30
2023-04-27T18:21:48.272Z,14.80
2023-04-27T18:24:17.802Z,14.80
2023-04-27T18:26:47.483Z,22.20
2023-04-27T18:29:17.272Z,12.90
2023-04-27T18:31:47.291Z,16.40
2023-04-27T18:34:17.006Z,10.90
2023-04-27T18:36:51.460Z,9.90
2023-04-27T18:39:21.670Z,10.10
2023-04-27T18:41:51.373Z,8.50
2023-04-27T18:44:21.232Z,9.00
2023-04-27T18:46:51.348Z,9.10
2023-04-27T18:49:21.794Z,34.50
2023-04-27T18:54:20.681Z,16.40
2023-04-27T18:56:52.565Z,13.40
2023-04-27T18:59:22.577Z,13.90
2023-04-27T19:01:52.461Z,11.30
2023-04-27T19:04:22.287Z,13.90
2023-04-27T19:06:51.958Z,15.10
2023-04-27T19:09:21.784Z,11.90
2023-04-27T19:12:01.943Z,10.10
2023-04-27T19:14:32.790Z,16.60
2023-04-27T19:17:02.516Z,16.10
2023-04-27T19:19:32.159Z,12.40
2023-04-27T19:22:02.996Z,14.40
2023-04-27T19:24:32.730Z,15.10
2023-04-27T19:27:02.524Z,13.40
2023-04-27T19:29:47.587Z,21.00
2023-04-27T19:32:17.701Z,15.20
2023-04-27T19:34:47.721Z,15.10
2023-04-27T19:37:17.666Z,20.70
2023-04-27T19:39:47.656Z,16.40
2023-04-27T19:42:17.636Z,17.20
2023-04-27T19:44:47.542Z,14.80
2023-04-27T19:47:17.201Z,18.70
2023-04-27T19:49:46.919Z,25.10
2023-04-27T19:52:16.889Z,28.90
2023-04-27T19:54:52.243Z,36.20
2023-04-27T19:57:22.335Z,33.40
2023-04-27T19:59:52.231Z,27.10
2023-04-27T20:02:22.254Z,17.50
2023-04-27T20:04:52.678Z,13.60
2023-04-27T20:07:22.711Z,17.20
2023-04-27T20:09:52.435Z,21.10
2023-04-27T20:12:43.494Z,23.00
2023-04-27T20:15:12.729Z,19.80
2023-04-27T20:17:42.563Z,21.90
2023-04-27T20:20:13.208Z,20.40
2023-04-27T20:22:43.105Z,23.80
2023-04-27T20:25:13.959Z,27.80
2023-04-27T20:27:43.709Z,21.60
2023-04-27T20:30:14.569Z,20.40
2023-04-27T20:32:45.916Z,39.80
2023-04-27T20:35:15.654Z,38.90
2023-04-27T20:37:45.479Z,29.30
2023-04-27T20:40:17.651Z,32.20
2023-04-27T20:42:48.748Z,31.90
2023-04-27T20:45:19.041Z,31.50
2023-04-27T20:47:50.349Z,30.90
2023-04-27T20:50:20.319Z,36.00
2023-04-27T20:52:50.037Z,32.60
2023-04-27T20:55:19.853Z,26.50
2023-04-27T20:57:49.388Z,28.10
2023-04-27T21:00:20.625Z,32.90
2023-04-27T21:02:50.912Z,34.10
2023-04-27T21:05:20.974Z,28.90
2023-04-27T21:07:50.732Z,29.10
2023-04-27T21:10:20.639Z,32.70
2023-04-27T21:12:50.486Z,26.90
2023-04-27T21:15:20.560Z,25.80
2023-04-27T21:17:50.385Z,27.40
2023-04-27T21:20:20.328Z,28.00
2023-04-27T21:22:49.934Z,26.60
2023-04-27T21:25:21.137Z,29.30
2023-04-27T21:27:52.809Z,26.50
2023-04-27T21:30:22.855Z,30.90
2023-04-27T21:32:52.460Z,25.50
2023-04-27T21:35:22.321Z,23.10
2023-04-27T21:37:51.979Z,21.40
2023-04-27T21:40:22.135Z,27.40
2023-04-27T21:42:53.849Z,26.00
2023-04-27T21:45:23.614Z,25.30
2023-04-27T21:47:53.237Z,22.70
2023-04-27T21:50:23.206Z,25.60
2023-04-27T21:52:52.831Z,32.80
2023-04-27T21:55:22.878Z,23.50
2023-04-27T21:57:52.527Z,24.20
2023-04-27T22:00:23.270Z,30.50
2023-04-27T22:02:53.125Z,28.10
2023-04-27T22:05:23.574Z,28.60
2023-04-27T22:07:53.328Z,29.50
2023-04-27T22:10:23.115Z,29.40
2023-04-27T22:12:52.765Z,41.70
2023-04-27T22:15:22.849Z,40.90
2023-04-27T22:17:53.163Z,43.30
2023-04-27T22:20:23.017Z,45.60
2023-04-27T22:22:52.668Z,49.20
2023-04-27T22:25:22.723Z,43.60
2023-04-27T22:27:52.521Z,39.70
2023-04-27T22:30:22.705Z,39.20
2023-04-27T22:32:52.654Z,40.40
2023-04-27T22:35:27.248Z,35.90
2023-04-27T22:37:57.930Z,38.60
2023-04-27T22:40:27.528Z,39.00
2023-04-27T22:42:57.207Z,45.40
2023-04-27T22:45:26.837Z,34.90
2023-04-27T22:47:57.019Z,36.70
2023-04-27T22:50:26.908Z,37.60
2023-04-27T22:52:57.206Z,34.00
2023-04-27T22:55:27.659Z,34.20
2023-04-27T22:57:57.363Z,29.80
2023-04-27T23:00:27.061Z,34.70
2023-04-27T23:02:56.877Z,31.60
2023-04-27T23:05:28.508Z,38.00
2023-04-27T23:07:59.384Z,29.50
2023-04-27T23:10:30.442Z,32.90
2023-04-27T23:13:01.403Z,30.00
2023-04-27T23:15:31.241Z,30.60
2023-04-27T23:18:00.910Z,30.20
2023-04-27T23:20:31.271Z,32.90
2023-04-27T23:23:01.118Z,32.50
2023-04-27T23:25:32.817Z,37.00
2023-04-27T23:28:02.548Z,31.40
2023-04-27T23:30:33.781Z,33.00
2023-04-27T23:33:03.578Z,32.80
2023-04-27T23:35:34.250Z,31.40
2023-04-27T23:38:03.929Z,31.60
2023-04-27T23:40:34.251Z,30.90
2023-04-27T23:43:04.042Z,31.40
2023-04-27T23:45:33.637Z,30.30
2023-04-27T23:48:04.246Z,34.80
2023-04-27T23:50:34.050Z,26.30
2023-04-27T23:53:03.748Z,29.90
2023-04-27T23:55:35.824Z,24.60
2023-04-27T23:58:05.541Z,25.40
